KDNV

Vermilion Regional Airport

Danville, Illinois, USA
METAR KDNV 170555Z AUTO 20008KT 10SM CLR 04/M02 A3005 RMK AO2 T00351016 10063 20032 401061004
Observed Flight Rules
Dec-17 @ 05:55 UTC (22 minutes ago) Visual Flight Rules
Wind Visibility Clouds
200° at 8 knots 10 miles
  • Clear skies
Temperatures Readings
Current 4°C / 39°F
Dewpoint -2°C / 28°F
Humidity 65%
Altimeter 30.05" Hg
Pressure 1018 hPa
Elevation 212
METAR KDNV 170555Z AUTO 20008KT 10SM CLR 04/M02 A3005 RMK AO2 T00351016 10063 20032 401061004
Observed Flight Rules
Dec-17 @ 05:55 UTC
(22 minutes ago)
VFR
Wind Visibility
200° at 8 knots 10 miles
Clouds
  • Clear skies
Temperature Dewpoint
4°C / 39°F -2°C / 28°F
Humidity Altimeter Pressure
65% 30.05" Hg 1018 hPa